createdAt,value
2019-02-06T00:00:26.464Z,89.31
2019-02-06T00:01:20.207Z,89.20
2019-02-06T00:02:19.240Z,89.45
2019-02-06T00:03:19.263Z,89.45
2019-02-06T00:04:19.189Z,89.14
2019-02-06T00:05:19.173Z,89.56
2019-02-06T00:06:19.477Z,89.35
2019-02-06T00:07:19.151Z,89.45
2019-02-06T00:08:19.162Z,89.14
2019-02-06T00:09:19.342Z,89.45
2019-02-06T00:10:19.146Z,89.45
2019-02-06T00:11:19.108Z,89.56
2019-02-06T00:12:19.113Z,89.14
2019-02-06T00:13:19.408Z,89.25
2019-02-06T00:14:19.145Z,89.76
2019-02-06T00:15:19.132Z,88.93
2019-02-06T00:16:19.064Z,89.08
2019-02-06T00:17:19.058Z,89.45
2019-02-06T00:18:19.055Z,89.04
2019-02-06T00:19:19.050Z,89.29
2019-02-06T00:20:19.357Z,89.39
2019-02-06T00:21:20.560Z,89.39
2019-02-06T00:22:18.998Z,89.18
2019-02-06T00:23:18.973Z,89.39
2019-02-06T00:24:18.972Z,88.24
2019-02-06T00:25:18.969Z,89.39
2019-02-06T00:26:18.952Z,89.39
2019-02-06T00:27:19.347Z,89.18
2019-02-06T00:28:18.935Z,89.39
2019-02-06T00:29:18.929Z,89.29
2019-02-06T00:30:18.913Z,88.24
2019-02-06T00:31:18.921Z,89.29
2019-02-06T00:32:18.902Z,88.76
2019-02-06T00:33:18.973Z,88.56
2019-02-06T00:34:19.189Z,88.66
2019-02-06T00:35:25.846Z,88.24
2019-02-06T00:36:19.836Z,88.76
2019-02-06T00:37:18.828Z,89.54
2019-02-06T00:38:18.817Z,89.39
2019-02-06T00:39:18.870Z,88.76
2019-02-06T00:40:18.808Z,88.56
2019-02-06T00:41:19.196Z,88.56
2019-02-06T00:42:18.801Z,89.32
2019-02-06T00:43:18.765Z,88.91
2019-02-06T00:44:18.771Z,89.32
2019-02-06T00:45:18.868Z,89.39
2019-02-06T00:46:18.738Z,89.18
2019-02-06T00:47:18.722Z,89.39
2019-02-06T00:48:19.207Z,88.87
2019-02-06T00:49:18.694Z,89.29
2019-02-06T00:50:18.711Z,89.12
2019-02-06T00:51:18.761Z,88.98
2019-02-06T00:52:18.678Z,88.91
2019-02-06T00:53:18.694Z,89.22
2019-02-06T00:54:18.677Z,89.39
2019-02-06T00:55:18.946Z,89.18
2019-02-06T00:56:18.651Z,88.91
2019-02-06T00:57:18.722Z,88.91
2019-02-06T00:58:18.603Z,89.54
2019-02-06T00:59:18.638Z,88.91
2019-02-06T01:00:18.694Z,89.54
2019-02-06T01:01:18.578Z,89.68
2019-02-06T01:02:18.871Z,89.58
2019-02-06T01:03:18.683Z,89.37
2019-02-06T01:04:18.586Z,89.26
2019-02-06T01:05:18.541Z,89.37
2019-02-06T01:06:18.537Z,89.89
2019-02-06T01:07:18.525Z,89.22
2019-02-06T01:08:18.505Z,89.68
2019-02-06T01:09:18.921Z,89.16
2019-02-06T01:10:18.485Z,89.16
2019-02-06T01:11:18.495Z,89.37
2019-02-06T01:12:18.482Z,89.78
2019-02-06T01:13:18.458Z,89.37
2019-02-06T01:14:18.447Z,89.89
2019-02-06T01:15:18.512Z,89.12
2019-02-06T01:16:18.698Z,89.26
2019-02-06T01:17:18.441Z,89.47
2019-02-06T01:18:18.403Z,88.53
2019-02-06T01:19:18.388Z,89.47
2019-02-06T01:20:18.389Z,89.47
2019-02-06T01:21:18.481Z,89.16
2019-02-06T01:22:18.377Z,88.91
2019-02-06T01:23:18.659Z,88.95
2019-02-06T01:24:18.352Z,88.85
2019-02-06T01:25:19.286Z,88.85
2019-02-06T01:26:18.327Z,88.85
2019-02-06T01:27:18.389Z,88.85
2019-02-06T01:28:18.297Z,88.64
2019-02-06T01:29:18.287Z,88.95
2019-02-06T01:30:18.664Z,88.08
2019-02-06T01:31:18.281Z,88.64
2019-02-06T01:32:18.352Z,89.16
2019-02-06T01:33:18.356Z,88.85
2019-02-06T01:34:18.253Z,88.85
2019-02-06T01:35:18.232Z,89.16
2019-02-06T01:36:18.246Z,88.85
2019-02-06T01:37:18.716Z,88.22
2019-02-06T01:38:18.200Z,88.01
2019-02-06T01:39:18.292Z,87.87
2019-02-06T01:40:18.205Z,87.87
2019-02-06T01:41:18.164Z,88.18
2019-02-06T01:42:18.171Z,88.01
2019-02-06T01:43:18.148Z,87.91
2019-02-06T01:44:18.542Z,88.08
2019-02-06T01:45:18.216Z,88.95
2019-02-06T01:46:18.231Z,88.12
2019-02-06T01:47:18.783Z,88.22
2019-02-06T01:48:18.787Z,88.18
2019-02-06T01:49:18.783Z,88.12
2019-02-06T01:50:18.783Z,88.01
2019-02-06T01:51:18.532Z,88.22
2019-02-06T01:52:18.079Z,88.43
2019-02-06T01:53:18.077Z,88.12
2019-02-06T01:54:18.041Z,88.53
2019-02-06T01:55:18.045Z,88.12
2019-02-06T01:56:18.003Z,88.53
2019-02-06T01:57:18.098Z,88.95
2019-02-06T01:58:18.285Z,89.41
2019-02-06T01:59:17.993Z,89.31
2019-02-06T02:00:17.972Z,89.16
2019-02-06T02:01:17.983Z,89.47
2019-02-06T02:02:17.955Z,89.06
2019-02-06T02:03:18.044Z,89.51
2019-02-06T02:04:17.935Z,88.95
2019-02-06T02:05:18.392Z,89.26
2019-02-06T02:06:17.921Z,89.41
2019-02-06T02:07:17.911Z,89.72
2019-02-06T02:08:17.890Z,89.51
2019-02-06T02:09:18.031Z,89.41
2019-02-06T02:10:17.876Z,89.31
2019-02-06T02:11:17.859Z,89.51
2019-02-06T02:12:18.233Z,89.31
2019-02-06T02:13:17.847Z,89.41
2019-02-06T02:14:17.839Z,89.37
2019-02-06T02:15:18.228Z,89.31
2019-02-06T02:16:17.820Z,90.03
2019-02-06T02:17:18.736Z,89.93
2019-02-06T02:18:17.820Z,90.14
2019-02-06T02:19:18.262Z,89.93
2019-02-06T02:20:17.762Z,90.25
2019-02-06T02:21:17.835Z,90.14
2019-02-06T02:22:17.777Z,89.72
2019-02-06T02:23:17.747Z,90.03
2019-02-06T02:24:17.752Z,89.72
2019-02-06T02:25:17.720Z,90.14
2019-02-06T02:26:18.110Z,90.14
2019-02-06T02:27:17.775Z,89.93
2019-02-06T02:28:17.699Z,90.03
2019-02-06T02:29:17.670Z,90.66
2019-02-06T02:30:17.675Z,90.35
2019-02-06T02:31:17.666Z,90.45
2019-02-06T02:32:17.651Z,90.35
2019-02-06T02:33:18.391Z,90.14
2019-02-06T02:34:17.624Z,90.45
2019-02-06T02:35:17.615Z,90.66
2019-02-06T02:36:17.605Z,90.45
2019-02-06T02:37:17.608Z,90.45
2019-02-06T02:38:18.144Z,90.56
2019-02-06T02:39:17.644Z,90.03
2019-02-06T02:40:17.996Z,90.14
2019-02-06T02:41:17.548Z,90.97
2019-02-06T02:42:17.550Z,90.66
2019-02-06T02:43:17.532Z,90.56
2019-02-06T02:44:17.513Z,90.35
2019-02-06T02:45:17.584Z,90.66
2019-02-06T02:46:17.500Z,90.45
2019-02-06T02:47:17.785Z,90.35
2019-02-06T02:48:17.522Z,90.56
2019-02-06T02:49:17.474Z,90.25
2019-02-06T02:50:17.483Z,90.45
2019-02-06T02:51:17.593Z,91.39
2019-02-06T02:52:17.473Z,90.56
2019-02-06T02:53:17.434Z,90.45
2019-02-06T02:54:18.727Z,90.35
2019-02-06T02:55:17.402Z,90.35
2019-02-06T02:56:17.396Z,90.14
2019-02-06T02:57:17.454Z,90.35
2019-02-06T02:58:17.373Z,90.25
2019-02-06T02:59:17.361Z,90.35
2019-02-06T03:01:40.947Z,90.35
2019-02-06T03:02:40.715Z,90.66
2019-02-06T03:03:40.702Z,90.70
2019-02-06T03:04:40.710Z,91.08
2019-02-06T03:05:40.709Z,90.87
2019-02-06T03:06:40.681Z,90.56
2019-02-06T03:07:40.985Z,90.35
2019-02-06T03:08:40.651Z,90.66
2019-02-06T03:09:40.657Z,90.45
2019-02-06T03:10:40.641Z,90.56
2019-02-06T03:11:40.652Z,90.25
2019-02-06T03:12:40.636Z,90.77
2019-02-06T03:13:40.657Z,90.14
2019-02-06T03:14:40.932Z,90.35
2019-02-06T03:15:40.608Z,90.77
2019-02-06T03:16:40.592Z,90.45
2019-02-06T03:17:40.590Z,90.45
2019-02-06T03:18:40.549Z,90.45
2019-02-06T03:19:40.762Z,90.66
2019-02-06T03:20:40.538Z,90.45
2019-02-06T03:21:40.833Z,90.35
2019-02-06T03:22:40.518Z,90.56
2019-02-06T03:23:40.498Z,90.35
2019-02-06T03:24:40.498Z,90.45
2019-02-06T03:25:40.797Z,90.45
2019-02-06T03:26:40.473Z,90.45
2019-02-06T03:27:40.466Z,90.25
2019-02-06T03:28:40.742Z,90.35
2019-02-06T03:29:40.480Z,90.56
2019-02-06T03:30:40.433Z,90.50
2019-02-06T03:31:40.467Z,90.18
2019-02-06T03:32:40.434Z,90.56
2019-02-06T03:33:40.399Z,90.77
2019-02-06T03:34:40.389Z,91.43
2019-02-06T03:35:40.664Z,90.97
2019-02-06T03:36:41.037Z,91.02
2019-02-06T03:37:40.407Z,91.08
2019-02-06T03:38:40.396Z,91.08
2019-02-06T03:39:40.365Z,90.45
2019-02-06T03:40:40.373Z,90.45
2019-02-06T03:41:40.318Z,90.56
2019-02-06T03:42:40.621Z,90.25
2019-02-06T03:43:40.344Z,90.45
2019-02-06T03:44:40.312Z,90.45
2019-02-06T03:45:40.280Z,90.70
2019-02-06T03:46:40.267Z,90.28
2019-02-06T03:47:40.252Z,90.25
2019-02-06T03:48:40.248Z,90.45
2019-02-06T03:49:42.737Z,90.25
2019-02-06T03:50:40.246Z,90.56
2019-02-06T03:51:40.256Z,90.60
2019-02-06T03:52:40.228Z,90.60
2019-02-06T03:53:40.202Z,90.45
2019-02-06T03:54:40.201Z,90.77
2019-02-06T03:55:40.392Z,90.77
2019-02-06T03:56:40.516Z,90.66
2019-02-06T03:57:40.191Z,90.81
2019-02-06T03:58:40.150Z,90.77
2019-02-06T03:59:40.225Z,90.77
2019-02-06T04:00:40.126Z,90.81
2019-02-06T04:01:40.151Z,90.97
2019-02-06T04:02:40.160Z,90.56
2019-02-06T04:03:41.049Z,90.35
2019-02-06T04:04:40.201Z,90.56
2019-02-06T04:05:40.103Z,90.66
2019-02-06T04:06:52.788Z,90.45
2019-02-06T04:07:41.098Z,90.14
2019-02-06T04:08:40.050Z,90.60
2019-02-06T04:09:40.042Z,90.77
2019-02-06T04:10:40.318Z,90.66
2019-02-06T04:11:40.007Z,91.18
2019-02-06T04:12:40.009Z,91.50
2019-02-06T04:13:40.191Z,90.25
2019-02-06T04:14:39.996Z,90.35
2019-02-06T04:15:39.990Z,90.25
2019-02-06T04:16:39.997Z,90.56
2019-02-06T04:17:40.270Z,90.77
2019-02-06T04:18:39.945Z,90.25
2019-02-06T04:19:39.987Z,90.56
2019-02-06T04:20:39.931Z,91.50
2019-02-06T04:21:40.767Z,90.77
2019-02-06T04:22:39.906Z,90.35
2019-02-06T04:23:39.905Z,90.14
2019-02-06T04:24:40.173Z,90.56
2019-02-06T04:25:39.912Z,90.56
2019-02-06T04:26:39.877Z,90.25
2019-02-06T04:27:39.876Z,90.66
2019-02-06T04:28:39.839Z,90.66
2019-02-06T04:29:39.825Z,90.56
2019-02-06T04:30:39.814Z,90.56
2019-02-06T04:31:39.862Z,90.25
2019-02-06T04:32:39.816Z,90.77
2019-02-06T04:33:39.851Z,90.14
2019-02-06T04:34:39.786Z,90.25
2019-02-06T04:35:39.768Z,90.35
2019-02-06T04:36:39.756Z,90.66
2019-02-06T04:37:40.083Z,90.77
2019-02-06T04:38:39.748Z,90.56
2019-02-06T04:39:39.728Z,90.52
2019-02-06T04:40:39.707Z,90.77
2019-02-06T04:41:39.708Z,90.56
2019-02-06T04:42:39.698Z,90.66
2019-02-06T04:43:39.716Z,90.66
2019-02-06T04:44:39.706Z,90.77
2019-02-06T04:45:39.708Z,90.56
2019-02-06T04:46:39.653Z,90.14
2019-02-06T04:47:39.647Z,90.97
2019-02-06T04:48:39.628Z,90.25
2019-02-06T04:49:40.107Z,90.97
2019-02-06T04:50:39.638Z,90.56
2019-02-06T04:51:39.610Z,90.25
2019-02-06T04:52:39.595Z,90.45
2019-02-06T04:53:39.569Z,90.45
2019-02-06T04:54:39.571Z,90.52
2019-02-06T04:55:39.596Z,90.41
2019-02-06T04:56:39.637Z,90.62
2019-02-06T04:57:39.540Z,90.66
2019-02-06T04:58:39.522Z,90.72
2019-02-06T04:59:39.509Z,90.83
2019-02-06T05:00:39.514Z,90.14
2019-02-06T05:01:39.818Z,89.68
2019-02-06T05:02:39.486Z,89.89
2019-02-06T05:03:39.498Z,89.68
2019-02-06T05:04:39.488Z,89.78
2019-02-06T05:05:39.460Z,90.20
2019-02-06T05:06:39.459Z,89.68
2019-02-06T05:07:40.033Z,89.78
2019-02-06T05:08:39.423Z,89.89
2019-02-06T05:09:39.417Z,89.37
2019-02-06T05:10:39.432Z,89.89
2019-02-06T05:11:39.406Z,89.78
2019-02-06T05:12:39.388Z,89.37
2019-02-06T05:13:39.448Z,89.26
2019-02-06T05:14:39.674Z,89.89
2019-02-06T05:15:39.364Z,90.10
2019-02-06T05:16:39.347Z,89.85
2019-02-06T05:17:39.371Z,89.54
2019-02-06T05:18:39.317Z,89.43
2019-02-06T05:19:39.352Z,89.08
2019-02-06T05:20:39.321Z,88.91
2019-02-06T05:21:39.611Z,88.70
2019-02-06T05:22:39.282Z,88.81
2019-02-06T05:23:39.276Z,89.43
2019-02-06T05:24:39.285Z,89.43
2019-02-06T05:25:39.434Z,89.43
2019-02-06T05:26:39.269Z,89.43
2019-02-06T05:27:39.274Z,89.22
2019-02-06T05:28:39.536Z,89.32
2019-02-06T05:29:39.268Z,89.22
2019-02-06T05:30:39.199Z,89.32
2019-02-06T05:31:39.232Z,89.22
2019-02-06T05:32:42.812Z,89.01
2019-02-06T05:33:39.163Z,89.12
2019-02-06T05:34:39.167Z,89.43
2019-02-06T05:35:39.530Z,89.32
2019-02-06T05:36:39.147Z,89.32
2019-02-06T05:37:39.172Z,89.43
2019-02-06T05:38:39.158Z,88.29
2019-02-06T05:39:39.110Z,88.70
2019-02-06T05:40:39.093Z,88.81
2019-02-06T05:41:39.092Z,88.60
2019-02-06T05:42:39.395Z,88.49
2019-02-06T05:43:39.378Z,88.60
2019-02-06T05:44:39.085Z,88.49
2019-02-06T05:45:39.044Z,88.29
2019-02-06T05:46:39.029Z,88.04
2019-02-06T05:47:39.023Z,87.76
2019-02-06T05:48:39.003Z,87.93
2019-02-06T05:49:39.472Z,87.93
2019-02-06T05:50:38.987Z,88.04
2019-02-06T05:51:39.711Z,88.87
2019-02-06T05:52:38.997Z,88.35
2019-02-06T05:53:38.957Z,88.14
2019-02-06T05:54:38.962Z,88.24
2019-02-06T05:55:38.968Z,88.08
2019-02-06T05:56:39.287Z,87.62
2019-02-06T05:57:38.924Z,88.14
2019-02-06T05:58:38.952Z,88.18
2019-02-06T05:59:38.890Z,88.24
2019-02-06T06:00:38.888Z,88.14
2019-02-06T06:01:39.121Z,87.93
2019-02-06T06:02:38.871Z,88.04
2019-02-06T06:03:40.175Z,88.24
2019-02-06T06:04:38.899Z,87.87
2019-02-06T06:05:38.867Z,88.18
2019-02-06T06:06:38.818Z,87.93
2019-02-06T06:07:45.382Z,87.76
2019-02-06T06:08:39.857Z,88.39
2019-02-06T06:09:38.806Z,87.83
2019-02-06T06:10:38.801Z,87.93
2019-02-06T06:11:39.192Z,88.24
2019-02-06T06:12:38.893Z,87.62
2019-02-06T06:13:39.178Z,88.24
2019-02-06T06:14:38.889Z,88.18
2019-02-06T06:15:38.770Z,87.62
2019-02-06T06:16:38.745Z,88.39
2019-02-06T06:17:38.778Z,88.18
2019-02-06T06:18:38.837Z,88.08
2019-02-06T06:19:38.990Z,87.83
2019-02-06T06:20:38.668Z,88.04
2019-02-06T06:21:38.677Z,88.04
2019-02-06T06:22:39.133Z,88.14
2019-02-06T06:23:38.663Z,88.14
2019-02-06T06:24:38.961Z,88.14
2019-02-06T06:25:38.731Z,87.66
2019-02-06T06:26:38.625Z,88.29
2019-02-06T06:27:38.617Z,88.08
2019-02-06T06:28:38.592Z,88.60
2019-02-06T06:29:38.859Z,88.29
2019-02-06T06:30:38.948Z,88.18
2019-02-06T06:31:38.597Z,88.60
2019-02-06T06:32:38.590Z,88.08
2019-02-06T06:33:38.552Z,87.97
2019-02-06T06:34:38.893Z,88.60
2019-02-06T06:35:38.536Z,88.29
2019-02-06T06:36:38.635Z,87.66
2019-02-06T06:37:41.384Z,87.97
2019-02-06T06:38:38.539Z,88.49
2019-02-06T06:39:39.274Z,87.97
2019-02-06T06:40:38.498Z,88.39
2019-02-06T06:41:39.670Z,88.39
2019-02-06T06:42:38.461Z,87.66
2019-02-06T06:43:38.464Z,87.66
2019-02-06T06:44:38.447Z,87.97
2019-02-06T06:45:38.444Z,87.87
2019-02-06T06:46:38.581Z,87.87
2019-02-06T06:47:38.405Z,87.45
2019-02-06T06:48:38.782Z,87.97
2019-02-06T06:49:38.413Z,87.87
2019-02-06T06:50:38.377Z,87.87
2019-02-06T06:51:38.374Z,87.87
2019-02-06T06:52:38.369Z,87.93
2019-02-06T06:53:38.343Z,87.83
2019-02-06T06:54:38.402Z,88.08
2019-02-06T06:55:39.903Z,88.08
2019-02-06T06:56:38.326Z,88.04
2019-02-06T06:57:38.339Z,87.87
2019-02-06T06:58:38.287Z,87.52
2019-02-06T06:59:38.328Z,88.29
2019-02-06T07:00:38.282Z,88.08
2019-02-06T07:01:38.708Z,87.45
2019-02-06T07:02:38.258Z,87.87
2019-02-06T07:03:38.253Z,87.87
2019-02-06T07:04:38.243Z,87.55
2019-02-06T07:05:38.232Z,87.73
2019-02-06T07:06:38.222Z,87.41
2019-02-06T07:07:38.239Z,87.52
2019-02-06T07:08:38.713Z,87.41
2019-02-06T07:09:38.175Z,87.62
2019-02-06T07:10:39.140Z,87.55
2019-02-06T07:11:38.215Z,87.30
2019-02-06T07:12:38.218Z,87.14
2019-02-06T07:13:38.256Z,87.35
2019-02-06T07:14:38.753Z,87.20
2019-02-06T07:15:38.611Z,87.62
2019-02-06T07:16:39.772Z,87.83
2019-02-06T07:17:38.701Z,86.99
2019-02-06T07:18:38.704Z,87.83
2019-02-06T07:19:38.123Z,87.20
2019-02-06T07:20:38.089Z,86.27
2019-02-06T07:21:38.064Z,86.68
2019-02-06T07:22:39.218Z,86.99
2019-02-06T07:23:38.041Z,86.58
2019-02-06T07:24:38.034Z,86.47
2019-02-06T07:25:38.069Z,86.37
2019-02-06T07:26:38.058Z,86.43
2019-02-06T07:27:38.024Z,86.58
2019-02-06T07:28:37.986Z,86.58
2019-02-06T07:29:38.423Z,86.47
2019-02-06T07:30:37.972Z,86.37
2019-02-06T07:31:38.032Z,86.47
2019-02-06T07:32:37.959Z,86.47
2019-02-06T07:33:37.967Z,86.79
2019-02-06T07:34:37.937Z,86.47
2019-02-06T07:35:37.923Z,86.68
2019-02-06T07:36:38.282Z,86.47
2019-02-06T07:37:37.943Z,85.91
2019-02-06T07:38:37.896Z,86.47
2019-02-06T07:39:37.888Z,86.12
2019-02-06T07:40:37.855Z,86.12
2019-02-06T07:41:37.864Z,86.22
2019-02-06T07:42:37.857Z,86.02
2019-02-06T07:43:38.398Z,85.50
2019-02-06T07:44:37.829Z,86.54
2019-02-06T07:45:37.809Z,86.12
2019-02-06T07:46:37.789Z,86.43
2019-02-06T07:47:37.787Z,85.39
2019-02-06T07:48:37.788Z,85.77
2019-02-06T07:49:37.827Z,85.56
2019-02-06T07:50:38.173Z,85.56
2019-02-06T07:51:37.752Z,85.25
2019-02-06T07:52:37.769Z,84.31
2019-02-06T07:53:37.767Z,84.63
2019-02-06T07:54:37.711Z,84.83
2019-02-06T07:55:37.784Z,85.04
2019-02-06T07:56:37.729Z,84.38
2019-02-06T07:57:38.653Z,84.42
2019-02-06T07:58:37.765Z,84.52
2019-02-06T07:59:37.671Z,84.94
2019-02-06T08:00:37.668Z,84.63
2019-02-06T08:01:37.684Z,85.67
2019-02-06T08:02:37.656Z,84.69
2019-02-06T08:03:37.640Z,83.75
2019-02-06T08:04:38.128Z,84.31
2019-02-06T08:05:38.203Z,84.63
2019-02-06T08:06:37.594Z,84.63
2019-02-06T08:07:37.627Z,84.59
2019-02-06T08:08:38.191Z,84.27
2019-02-06T08:09:37.579Z,84.69
2019-02-06T08:10:37.611Z,84.59
2019-02-06T08:11:38.668Z,83.65
2019-02-06T08:12:37.544Z,84.59
2019-02-06T08:13:37.546Z,84.17
2019-02-06T08:14:37.505Z,84.06
2019-02-06T08:15:37.498Z,84.80
2019-02-06T08:16:37.488Z,83.96
2019-02-06T08:17:37.564Z,84.13
2019-02-06T08:18:37.919Z,84.34
2019-02-06T08:19:37.523Z,83.61
2019-02-06T08:20:37.447Z,83.61
2019-02-06T08:21:37.427Z,83.51
2019-02-06T08:22:37.448Z,83.82
2019-02-06T08:23:38.183Z,83.82
2019-02-06T08:24:37.409Z,83.82
2019-02-06T08:25:38.684Z,83.72
2019-02-06T08:26:37.388Z,83.40
2019-02-06T08:27:37.416Z,83.40
2019-02-06T08:28:38.162Z,83.72
2019-02-06T08:29:37.366Z,83.09
2019-02-06T08:30:37.350Z,82.95
2019-02-06T08:31:37.845Z,83.26
2019-02-06T08:32:37.984Z,82.84
2019-02-06T08:33:37.442Z,82.74
2019-02-06T08:34:37.318Z,82.99
2019-02-06T08:35:37.328Z,82.36
2019-02-06T08:36:37.298Z,82.53
2019-02-06T08:37:37.461Z,82.95
2019-02-06T08:38:47.478Z,82.74
2019-02-06T08:39:38.253Z,81.81
2019-02-06T08:40:37.256Z,83.12
2019-02-06T08:41:37.238Z,81.46
2019-02-06T08:42:37.233Z,81.49
2019-02-06T08:43:37.411Z,83.05
2019-02-06T08:44:37.235Z,82.60
2019-02-06T08:45:37.726Z,81.87
2019-02-06T08:46:37.208Z,82.29
2019-02-06T08:47:37.339Z,81.46
2019-02-06T08:48:37.182Z,82.18
2019-02-06T08:49:37.298Z,81.56
2019-02-06T08:50:37.153Z,82.18
2019-02-06T08:51:37.138Z,82.81
2019-02-06T08:52:37.513Z,81.98
2019-02-06T08:53:37.100Z,81.35
2019-02-06T08:54:37.706Z,81.46
2019-02-06T08:55:37.948Z,81.15
2019-02-06T08:56:37.088Z,81.56
2019-02-06T08:57:37.062Z,81.32
2019-02-06T08:58:37.690Z,81.25
2019-02-06T08:59:37.363Z,81.42
2019-02-06T09:00:37.060Z,82.15
2019-02-06T09:01:37.136Z,81.01
2019-02-06T09:02:37.389Z,79.86
2019-02-06T09:03:37.001Z,80.07
2019-02-06T09:04:36.988Z,81.01
2019-02-06T09:05:37.000Z,80.69
2019-02-06T09:06:37.409Z,80.80
2019-02-06T09:07:37.011Z,80.80
2019-02-06T09:08:36.958Z,80.49
2019-02-06T09:09:37.671Z,80.59
2019-02-06T09:10:36.919Z,80.28
2019-02-06T09:11:36.961Z,80.04
2019-02-06T09:12:36.913Z,79.61
2019-02-06T09:13:37.308Z,79.93
2019-02-06T09:14:36.920Z,79.41
2019-02-06T09:15:36.986Z,79.76
2019-02-06T09:16:36.869Z,79.86
2019-02-06T09:17:36.871Z,80.14
2019-02-06T09:18:37.719Z,79.93
2019-02-06T09:19:37.260Z,80.07
2019-02-06T09:20:37.307Z,80.04
2019-02-06T09:21:36.808Z,79.38
2019-02-06T09:22:36.823Z,79.20
2019-02-06T09:23:36.795Z,79.61
2019-02-06T09:24:36.798Z,79.20
2019-02-06T09:25:36.849Z,79.61
2019-02-06T09:26:36.760Z,79.17
2019-02-06T09:27:37.155Z,78.55
2019-02-06T09:28:37.442Z,78.44
2019-02-06T09:29:36.742Z,78.44
2019-02-06T09:30:36.762Z,78.44
2019-02-06T09:31:36.936Z,78.23
2019-02-06T09:32:36.780Z,78.23
2019-02-06T09:33:36.709Z,78.03
2019-02-06T09:34:37.993Z,78.44
2019-02-06T09:35:36.669Z,78.44
2019-02-06T09:36:36.691Z,78.51
2019-02-06T09:37:36.754Z,78.51
2019-02-06T09:38:36.696Z,78.55
2019-02-06T09:39:37.502Z,78.51
2019-02-06T09:40:36.714Z,78.51
2019-02-06T09:41:37.177Z,78.61
2019-02-06T09:42:36.658Z,78.30
2019-02-06T09:43:36.642Z,78.72
2019-02-06T09:44:36.586Z,78.30
2019-02-06T09:45:36.570Z,78.30
2019-02-06T09:46:37.046Z,78.55
2019-02-06T09:47:36.534Z,78.20
2019-02-06T09:48:36.541Z,78.20
2019-02-06T09:49:37.218Z,78.41
2019-02-06T09:50:36.516Z,77.37
2019-02-06T09:51:36.526Z,78.09
2019-02-06T09:52:36.530Z,77.47
2019-02-06T09:53:36.523Z,77.12
2019-02-06T09:54:36.473Z,76.92
2019-02-06T09:55:36.731Z,77.44
2019-02-06T09:56:36.463Z,77.12
2019-02-06T09:57:36.468Z,76.50
2019-02-06T09:58:36.925Z,76.81
2019-02-06T09:59:36.462Z,76.29
2019-02-06T10:00:36.504Z,76.29
2019-02-06T10:01:36.544Z,76.71
2019-02-06T10:02:36.391Z,77.09
2019-02-06T10:03:36.409Z,76.40
2019-02-06T10:04:36.377Z,76.81
2019-02-06T10:05:36.782Z,76.36
2019-02-06T10:06:37.198Z,76.95
2019-02-06T10:07:36.523Z,75.60
2019-02-06T10:08:36.340Z,74.98
2019-02-06T10:09:36.331Z,75.63
2019-02-06T10:10:36.309Z,75.74
2019-02-06T10:11:36.312Z,75.71
2019-02-06T10:12:36.612Z,75.50
2019-02-06T10:13:36.763Z,74.88
2019-02-06T10:14:36.256Z,74.88
2019-02-06T10:15:36.294Z,75.09
2019-02-06T10:16:36.252Z,74.98
2019-02-06T10:17:36.367Z,75.15
2019-02-06T10:18:36.229Z,74.98
2019-02-06T10:19:37.178Z,75.29
2019-02-06T10:20:36.194Z,74.67
2019-02-06T10:21:36.213Z,74.98
2019-02-06T10:22:36.169Z,75.19
2019-02-06T10:23:36.208Z,74.67
2019-02-06T10:24:36.167Z,74.77
2019-02-06T10:25:36.277Z,74.95
2019-02-06T10:26:36.532Z,75.50
2019-02-06T10:27:36.136Z,74.95
2019-02-06T10:28:36.660Z,75.26
2019-02-06T10:29:36.112Z,75.26
2019-02-06T10:30:36.103Z,73.88
2019-02-06T10:31:36.143Z,73.81
2019-02-06T10:32:36.084Z,74.08
2019-02-06T10:33:36.530Z,73.46
2019-02-06T10:34:36.057Z,73.46
2019-02-06T10:35:36.666Z,74.08
2019-02-06T10:36:36.046Z,73.54
2019-02-06T10:37:36.236Z,72.64
2019-02-06T10:38:36.004Z,73.22
2019-02-06T10:39:36.004Z,73.12
2019-02-06T10:40:36.379Z,73.39
2019-02-06T10:41:36.686Z,72.67
2019-02-06T10:42:36.691Z,72.16
2019-02-06T10:43:36.828Z,72.05
2019-02-06T10:44:35.955Z,72.50
2019-02-06T10:45:36.012Z,72.19
2019-02-06T10:46:35.932Z,72.81
2019-02-06T10:47:36.472Z,73.12
2019-02-06T10:48:36.666Z,73.12
2019-02-06T10:49:36.041Z,73.12
2019-02-06T10:50:35.901Z,72.26
2019-02-06T10:51:36.022Z,72.81
2019-02-06T10:52:35.896Z,72.50
2019-02-06T10:53:36.663Z,73.43
2019-02-06T10:54:37.297Z,73.46
2019-02-06T10:55:35.894Z,72.67
2019-02-06T10:56:36.694Z,73.19
2019-02-06T10:57:35.818Z,72.26
2019-02-06T10:58:35.898Z,72.81
2019-02-06T10:59:35.803Z,72.47
2019-02-06T11:00:35.799Z,72.71
2019-02-06T11:01:36.251Z,72.36
2019-02-06T11:02:35.773Z,72.88
2019-02-06T11:03:35.846Z,72.36
2019-02-06T11:04:36.652Z,72.36
2019-02-06T11:05:35.787Z,72.26
2019-02-06T11:06:35.784Z,72.33
2019-02-06T11:07:36.349Z,71.74
2019-02-06T11:08:35.749Z,72.05
2019-02-06T11:09:46.101Z,71.64
2019-02-06T11:10:36.782Z,72.36
2019-02-06T11:11:36.715Z,72.22
2019-02-06T11:12:35.691Z,71.71
2019-02-06T11:13:35.682Z,71.30
2019-02-06T11:14:35.646Z,71.19
2019-02-06T11:15:35.637Z,71.19
2019-02-06T11:16:35.659Z,71.61
2019-02-06T11:17:35.594Z,71.30
2019-02-06T11:18:35.632Z,71.61
2019-02-06T11:19:35.628Z,71.50
2019-02-06T11:20:35.922Z,71.47
2019-02-06T11:21:35.586Z,71.40
2019-02-06T11:22:35.665Z,70.78
2019-02-06T11:23:35.549Z,70.78
2019-02-06T11:24:35.716Z,70.88
2019-02-06T11:25:35.792Z,71.26
2019-02-06T11:26:35.615Z,70.98
2019-02-06T11:27:37.821Z,73.05
2019-02-06T11:28:35.564Z,71.26
2019-02-06T11:29:35.490Z,71.85
2019-02-06T11:30:35.498Z,70.82
2019-02-06T11:31:35.518Z,70.30
2019-02-06T11:32:35.462Z,71.12
2019-02-06T11:33:35.461Z,71.02
2019-02-06T11:34:35.941Z,69.48
2019-02-06T11:35:35.432Z,69.58
2019-02-06T11:36:35.409Z,69.27
2019-02-06T11:37:35.444Z,69.17
2019-02-06T11:38:35.393Z,69.44
2019-02-06T11:39:35.628Z,68.21
2019-02-06T11:40:35.454Z,69.13
2019-02-06T11:41:35.385Z,68.00
2019-02-06T11:42:35.378Z,68.34
2019-02-06T11:43:36.204Z,69.44
2019-02-06T11:44:35.328Z,69.13
2019-02-06T11:45:35.322Z,68.82
2019-02-06T11:46:35.303Z,68.62
2019-02-06T11:47:35.623Z,68.62
2019-02-06T11:48:36.384Z,68.75
2019-02-06T11:49:35.429Z,68.21
2019-02-06T11:50:35.285Z,69.65
2019-02-06T11:51:35.268Z,68.85
2019-02-06T11:52:35.256Z,69.58
2019-02-06T11:53:35.547Z,69.30
2019-02-06T11:54:35.232Z,69.99
2019-02-06T11:55:35.275Z,69.30
2019-02-06T11:56:35.219Z,69.61
2019-02-06T11:57:35.196Z,69.68
2019-02-06T11:58:35.203Z,69.58
2019-02-06T11:59:35.599Z,69.27
2019-02-06T12:00:35.162Z,69.48
2019-02-06T12:01:35.210Z,69.03
2019-02-06T12:02:37.377Z,69.13
2019-02-06T12:03:35.218Z,68.93
2019-02-06T12:04:35.145Z,69.24
2019-02-06T12:05:35.138Z,68.96
2019-02-06T12:06:35.652Z,69.13
2019-02-06T12:07:35.937Z,69.00
2019-02-06T12:08:35.083Z,68.59
2019-02-06T12:09:35.677Z,68.38
2019-02-06T12:10:35.064Z,68.59
2019-02-06T12:11:35.473Z,68.38
2019-02-06T12:12:35.058Z,68.27
2019-02-06T12:13:35.050Z,68.69
2019-02-06T12:14:35.024Z,68.62
2019-02-06T12:15:37.655Z,69.10
2019-02-06T12:16:35.002Z,69.10
2019-02-06T12:17:34.984Z,68.51
2019-02-06T12:18:35.027Z,69.03
2019-02-06T12:19:35.038Z,68.82
2019-02-06T12:20:34.962Z,68.82
2019-02-06T12:21:34.938Z,69.17
2019-02-06T12:22:34.942Z,69.54
2019-02-06T12:23:34.947Z,70.27
2019-02-06T12:24:35.372Z,69.31
2019-02-06T12:25:35.128Z,68.72
2019-02-06T12:26:35.634Z,68.90
2019-02-06T12:27:34.884Z,68.90
2019-02-06T12:28:34.862Z,68.72
2019-02-06T12:29:34.848Z,69.03
2019-02-06T12:30:35.608Z,68.82
2019-02-06T12:31:35.223Z,68.62
2019-02-06T12:32:34.854Z,68.72
2019-02-06T12:33:36.714Z,68.82
2019-02-06T12:34:34.812Z,69.34
2019-02-06T12:35:34.827Z,69.54
2019-02-06T12:36:34.860Z,69.13
2019-02-06T12:37:35.805Z,69.44
2019-02-06T12:38:34.793Z,69.54
2019-02-06T12:39:34.750Z,69.89
2019-02-06T12:40:34.748Z,68.93
2019-02-06T12:41:34.729Z,69.03
2019-02-06T12:42:34.737Z,69.24
2019-02-06T12:43:35.029Z,69.44
2019-02-06T12:44:35.651Z,69.03
2019-02-06T12:45:37.699Z,68.30
2019-02-06T12:46:34.713Z,69.13
2019-02-06T12:47:34.678Z,69.13
2019-02-06T12:48:34.820Z,69.85
2019-02-06T12:49:35.139Z,69.41
2019-02-06T12:50:34.643Z,69.10
2019-02-06T12:51:34.698Z,68.79
2019-02-06T12:52:34.637Z,68.79
2019-02-06T12:53:34.599Z,68.62